Time;durP1;ratioP1;P1;durP2;ratioP2;P2;SDS_P1;SDS_P2;PMS_P1;PMS_P2;Temp;Humidity;BMP_temperature;BMP_pressure;BME280_temperature;BME280_humidity;BME280_pressure;Samples;Min_cycle;Max_cycle;Signal;HPM_P1;HPM_P2
2023/08/14 00:01:10;;;;;;;;;9.00;8.75;;;;;20.67;63.29;101345.84;2012785;28;1818018;-75
2023/08/14 00:02:22;;;;;;;;;15.00;12.00;;;;;20.66;63.29;101346.81;1984821;28;2787812;-75
2023/08/14 00:03:32;;;;;;;;;12.00;11.00;;;;;20.65;62.94;101339.75;1982241;28;2796061;-76
2023/08/14 00:04:43;;;;;;;;;14.00;10.00;;;;;20.63;62.91;101328.31;1998371;28;2787764;-76
2023/08/14 00:05:54;;;;;;;;;11.75;11.00;;;;;20.63;63.28;101324.78;2013359;28;1824332;-76
2023/08/14 00:07:08;;;;;;;;;12.00;9.86;;;;;20.61;63.02;101322.22;2017765;28;1820106;-76
2023/08/14 00:08:19;;;;;;;;;14.00;13.00;;;;;20.61;63.02;101324.91;2007568;28;2794575;-77
2023/08/14 00:09:32;;;;;;;;;12.33;9.67;;;;;20.61;62.86;101322.22;2015426;28;2778451;-76
2023/08/14 00:10:43;;;;;;;;;10.00;9.00;;;;;20.62;63.09;101326.59;2023562;28;2774203;-75
2023/08/14 00:11:54;;;;;;;;;10.00;10.00;;;;;20.62;62.89;101328.44;2037683;28;1820110;-75
2023/08/14 00:13:05;;;;;;;;;17.00;12.00;;;;;20.62;62.70;101334.59;2004432;28;2804413;-76
2023/08/14 00:14:16;;;;;;;;;15.00;11.50;;;;;20.62;62.97;101329.25;2004066;28;2785736;-76
2023/08/14 00:15:28;;;;;;;;;10.00;10.00;;;;;20.62;62.93;101328.44;2006952;28;1820098;-76
2023/08/14 00:16:39;;;;;;;;;16.67;14.00;;;;;20.62;62.75;101328.44;2007210;28;2810080;-76
2023/08/14 00:17:52;;;;;;;;;12.00;9.50;;;;;20.59;63.08;101324.16;2040327;28;1820079;-75
2023/08/14 00:19:03;;;;;;;;;11.00;9.00;;;;;20.57;63.09;101316.22;1988913;28;2774261;-76
2023/08/14 00:20:16;;;;;;;;;17.00;12.33;;;;;20.55;63.13;101312.81;2036229;28;2802826;-76
2023/08/14 00:21:27;;;;;;;;;13.00;11.00;;;;;20.54;62.90;101315.59;1999183;28;2788801;-73
2023/08/14 00:22:38;;;;;;;;;14.00;10.25;;;;;20.54;62.93;101315.59;2005735;28;2787735;-73
2023/08/14 00:23:49;;;;;;;;;11.50;11.50;;;;;20.56;63.15;101319.88;1997529;28;2789923;-73
2023/08/14 00:25:01;;;;;;;;;13.20;10.60;;;;;20.63;62.90;101314.09;2011376;28;1831500;-75
2023/08/14 00:26:15;;;;;;;;;14.14;10.29;;;;;20.68;62.39;101302.16;2037632;28;1816371;-75
2023/08/14 00:27:28;;;;;;;;;1.83;1.67;;;;;20.69;62.87;101298.50;2036168;28;2737817;-75
2023/08/14 00:28:41;;;;;;;;;13.17;11.33;;;;;20.68;62.52;101296.81;2015229;28;1829558;-75
2023/08/14 00:29:52;;;;;;;;;10.50;10.50;;;;;20.67;62.60;101297.78;1985513;28;2790927;-75
2023/08/14 00:31:03;;;;;;;;;10.00;7.00;;;;;20.67;62.60;101302.25;1998530;28;2757564;-75
2023/08/14 00:32:15;;;;;;;;;10.00;10.00;;;;;20.66;62.82;101300.56;2036604;28;1822186;-76
2023/08/14 00:33:25;;;;;;;;;11.50;11.50;;;;;20.65;62.89;101315.72;2004775;28;2790908;-77
2023/08/14 00:34:36;;;;;;;;;12.50;9.00;;;;;20.64;62.83;101313.16;1998980;28;2779391;-77
2023/08/14 00:35:49;;;;;;;;;11.17;8.83;;;;;20.66;62.75;101309.44;2015151;28;1823259;-77
2023/08/14 00:36:59;;;;;;;;;11.50;10.00;;;;;20.72;62.88;101312.66;2003812;28;2787819;-76
2023/08/14 00:38:11;;;;;;;;;8.00;8.00;;;;;20.73;62.56;101301.84;2008937;28;1818994;-76
2023/08/14 00:39:22;;;;;;;;;11.50;9.50;;;;;20.72;63.05;101300.13;1999579;28;2778365;-76
2023/08/14 00:40:33;;;;;;;;;9.50;7.50;;;;;20.69;63.02;101287.84;2010531;28;2747187;-76
2023/08/14 00:41:44;;;;;;;;;10.50;10.00;;;;;20.66;62.58;101293.41;2026434;28;2786714;-76
2023/08/14 00:42:55;;;;;;;;;11.00;9.00;;;;;20.66;62.07;101289.88;1999957;28;2769010;-76
2023/08/14 00:44:07;;;;;;;;;9.75;9.00;;;;;20.69;62.92;101285.16;2007841;28;1842040;-76
2023/08/14 00:45:21;;;;;;;;;12.14;10.71;;;;;20.70;62.91;101288.69;2038232;28;1820047;-76
2023/08/14 00:46:34;;;;;;;;;11.83;10.50;;;;;20.68;62.77;101286.13;2040171;28;1819069;-76
2023/08/14 00:47:48;;;;;;;;;10.67;10.00;;;;;20.68;62.58;101291.47;2023561;28;1821204;-76
2023/08/14 00:48:59;;;;;;;;;10.00;8.50;;;;;20.67;62.80;101288.91;1970437;28;2757564;-74
2023/08/14 00:50:11;;;;;;;;;10.20;10.20;;;;;20.64;62.72;101281.94;2010780;28;1819067;-82
2023/08/14 00:51:23;;;;;;;;;14.00;9.00;;;;;20.63;62.47;101277.59;1983432;28;2775259;-83
2023/08/14 00:52:41;;;;;;;;;8.33;8.00;;;;;20.63;62.36;101282.06;2017431;28;2745021;-88
2023/08/14 00:53:54;;;;;;;;;12.50;10.00;;;;;20.61;62.32;101284.84;1987623;28;2789859;-85
2023/08/14 00:55:11;;;;;;;;;11.33;9.67;;;;;20.62;62.31;101272.34;2019674;28;1815924;-82
2023/08/14 00:56:23;;;;;;;;;12.00;8.00;;;;;20.62;62.13;101281.19;1985788;28;2753410;-75
2023/08/14 00:57:35;;;;;;;;;12.50;11.00;;;;;20.64;62.59;101281.94;1991876;28;2783617;-76
2023/08/14 00:58:49;;;;;;;;;12.83;9.33;;;;;20.68;62.38;101288.81;2024868;28;1822118;-75
2023/08/14 01:00:03;;;;;;;;;8.50;7.50;;;;;20.71;62.39;101286.88;1978905;28;2749240;-76
2023/08/14 01:01:13;;;;;;;;;8.00;8.00;;;;;20.72;62.35;101286.78;2007577;28;2745088;-76
2023/08/14 01:02:25;;;;;;;;;12.50;11.50;;;;;20.72;62.52;101285.94;2013743;28;2783578;-77
2023/08/14 01:03:36;;;;;;;;;10.50;8.50;;;;;20.71;62.51;101289.56;1981618;28;2765865;-78
2023/08/14 01:04:47;;;;;;;;;11.00;9.00;;;;;20.71;62.81;101289.56;2008001;28;2753397;-78
2023/08/14 01:05:58;;;;;;;;;9.50;8.50;;;;;20.69;62.63;101284.34;2025592;28;2754531;-78
2023/08/14 01:07:09;;;;;;;;;12.25;9.75;;;;;20.67;62.78;101275.53;2037702;28;1821128;-75
2023/08/14 01:08:19;;;;;;;;;10.50;10.50;;;;;20.66;62.59;101281.88;1984874;28;2786702;-75
2023/08/14 01:09:30;;;;;;;;;11.50;10.50;;;;;20.64;62.45;101281.94;2008871;28;2791946;-75
2023/08/14 01:11:08;;;;;;;;;14.00;8.50;;;;;20.64;62.77;101289.97;2029749;28;2773200;-74
2023/08/14 01:12:45;;;;;;;;;9.75;8.00;;;;;20.63;62.91;101290.06;2001740;28;1814835;-73
2023/08/14 01:14:28;;;;;;;;;8.17;8.17;;;;;20.64;62.77;101291.78;2033038;28;1821177;-74
2023/08/14 01:15:46;;;;;;;;;10.00;9.00;;;;;20.63;62.67;101288.25;2017733;28;1819053;-73
2023/08/14 01:17:01;;;;;;;;;10.00;8.00;;;;;20.60;63.14;101277.78;1991695;28;2758590;-73
2023/08/14 01:18:17;;;;;;;;;10.50;9.83;;;;;20.56;63.09;101282.50;2042283;28;1819084;-73
2023/08/14 01:19:39;;;;;;;;;8.00;7.67;;;;;20.54;63.17;101281.75;2011773;28;1819065;-74
2023/08/14 01:21:11;;;;;;;;;12.50;10.00;;;;;20.52;63.58;101280.13;1976522;28;2787824;-77
2023/08/14 01:22:53;;;;;;;;;9.00;9.00;;;;;20.49;63.31;101277.66;1975962;28;2737817;-76
2023/08/14 01:24:33;;;;;;;;;10.00;10.00;;;;;20.45;63.59;101275.19;2033229;28;1820079;-73
2023/08/14 01:25:44;;;;;;;;;10.00;9.00;;;;;20.44;63.54;101273.50;1954294;28;2753399;-73
2023/08/14 01:26:56;;;;;;;;;5.00;5.00;;;;;20.42;63.51;101270.03;2035305;28;2717986;-73
2023/08/14 01:28:08;;;;;;;;;11.50;9.00;;;;;20.42;63.59;101275.38;1984750;28;2765877;-73
2023/08/14 01:29:19;;;;;;;;;12.00;9.25;;;;;20.42;63.71;101269.22;2031311;28;1837793;-73
2023/08/14 01:30:30;;;;;;;;;11.50;10.00;;;;;20.41;63.37;101280.84;2001576;28;2791923;-73
2023/08/14 01:31:42;;;;;;;;;11.25;10.75;;;;;20.41;63.86;101279.03;2020114;28;1835817;-73
2023/08/14 01:32:53;;;;;;;;;11.00;9.00;;;;;20.42;63.82;101287.91;2021606;28;2762792;-73
2023/08/14 01:34:04;;;;;;;;;9.00;8.00;;;;;20.42;63.99;101290.56;2010210;28;2744037;-73
2023/08/14 01:35:19;;;;;;;;;10.40;8.40;;;;;20.40;63.77;101285.31;2039424;28;1821140;-73
2023/08/14 01:36:46;;;;;;;;;9.75;9.75;;;;;20.40;63.82;101277.31;2023011;28;1841924;-73
2023/08/14 01:38:09;;;;;;;;;10.00;9.17;;;;;20.39;63.92;101278.28;2032232;28;1820055;-73
2023/08/14 01:39:31;;;;;;;;;11.67;11.17;;;;;20.38;63.79;101273.88;2009640;28;1821188;-73
2023/08/14 01:41:05;;;;;;;;;9.00;9.00;;;;;20.40;64.04;101279.09;1986126;28;2738293;-77
2023/08/14 01:42:27;;;;;;;;;8.00;8.00;;;;;20.40;64.26;101279.09;2001476;28;2740941;-77
2023/08/14 01:43:43;;;;;;;;;10.00;8.50;;;;;20.40;63.95;101281.78;2001064;28;2750258;-77
2023/08/14 01:45:01;;;;;;;;;7.33;7.33;;;;;20.40;64.17;101287.13;2009741;28;3455446;-77
2023/08/14 01:46:14;;;;;;;;;13.00;8.00;;;;;20.40;64.15;101279.97;2016531;28;2758622;-76
2023/08/14 01:47:27;;;;;;;;;10.50;10.00;;;;;20.40;63.48;101279.97;2015175;28;2785664;-76
2023/08/14 01:48:42;;;;;;;;;10.83;7.83;;;;;20.41;63.90;101280.84;2040505;28;1819119;-75
2023/08/14 01:49:56;;;;;;;;;11.50;9.00;;;;;20.42;64.25;101274.53;1978742;28;2758610;-75
2023/08/14 01:51:10;;;;;;;;;10.50;9.33;;;;;20.43;64.07;101273.56;2032538;28;1815908;-74
2023/08/14 01:52:23;;;;;;;;;4.50;4.50;;;;;20.43;63.81;101270.91;2013245;28;2713902;-75
2023/08/14 01:53:35;;;;;;;;;10.00;9.00;;;;;20.45;64.06;101277.84;1986030;28;3478380;-74
2023/08/14 01:54:46;;;;;;;;;8.00;8.00;;;;;20.45;64.07;101280.53;2009560;28;2741963;-75
2023/08/14 01:55:57;;;;;;;;;11.75;9.00;;;;;20.49;64.10;101275.84;2032332;28;1821209;-76
2023/08/14 01:57:07;;;;;;;;;9.00;9.00;;;;;20.51;64.07;101278.41;1987519;28;2749227;-76
2023/08/14 01:58:19;;;;;;;;;7.67;7.33;;;;;20.55;63.88;101279.91;2042508;28;1825277;-76
2023/08/14 01:59:40;;;;;;;;;11.00;11.00;;;;;20.60;63.84;101277.78;1985243;28;2796096;-75
2023/08/14 02:00:50;;;;;;;;;8.33;7.67;;;;;20.65;63.75;101272.13;1999902;28;1808589;-75
2023/08/14 02:02:02;;;;;;;;;14.00;8.00;;;;;20.72;63.80;101269.91;2018738;28;1831554;-75
2023/08/14 02:03:12;;;;;;;;;8.67;5.33;;;;;20.77;63.73;101281.13;2011465;28;2737781;-76
2023/08/14 02:04:25;;;;;;;;;10.17;7.50;;;;;20.79;63.48;101274.72;2028670;28;2766961;-75
2023/08/14 02:05:35;;;;;;;;;11.00;9.00;;;;;20.87;63.62;101276.00;2007971;28;3469997;-76
2023/08/14 02:06:46;;;;;;;;;6.67;5.00;;;;;20.91;63.31;101275.69;2044235;28;2729436;-76
2023/08/14 02:07:57;;;;;;;;;9.00;8.00;;;;;20.96;63.14;101263.84;1993240;28;2749227;-74
2023/08/14 02:09:08;;;;;;;;;8.00;5.67;;;;;21.00;63.26;101273.34;2036356;28;1832719;-74
2023/08/14 02:10:18;;;;;;;;;9.67;7.00;;;;;21.02;62.92;101271.44;1988151;28;3464831;-74
2023/08/14 02:11:29;;;;;;;;;11.00;7.50;;;;;21.04;63.05;101266.03;2026469;28;2765894;-74
2023/08/14 02:12:40;;;;;;;;;10.00;9.00;;;;;21.08;62.89;101259.50;2015084;28;2769097;-74
2023/08/14 02:13:51;;;;;;;;;9.00;8.00;;;;;21.11;62.73;101256.59;2017513;28;2749758;-74
2023/08/14 02:15:02;;;;;;;;;8.00;8.00;;;;;21.11;63.17;101249.41;2022105;28;3459595;-74
2023/08/14 02:16:13;;;;;;;;;7.00;6.33;;;;;21.11;62.59;101252.09;2015440;28;3447140;-74
2023/08/14 02:17:27;;;;;;;;;9.00;7.00;;;;;21.13;63.04;101252.88;2025021;28;2735710;-74
2023/08/14 02:18:37;;;;;;;;;8.50;8.50;;;;;21.12;62.49;101248.47;2014347;28;2738811;-74
2023/08/14 02:19:48;;;;;;;;;11.33;8.33;;;;;21.14;62.41;101254.56;2038032;28;1831539;-74
2023/08/14 02:20:59;;;;;;;;;7.00;6.33;;;;;21.18;62.55;101257.03;1979426;28;3455470;-74
2023/08/14 02:22:10;;;;;;;;;7.00;6.00;;;;;21.21;62.22;101256.81;2023195;28;3440899;-74
2023/08/14 02:23:20;;;;;;;;;7.67;7.67;;;;;21.25;62.09;101264.50;2027321;28;3457540;-74
2023/08/14 02:24:31;;;;;;;;;9.00;7.67;;;;;21.28;62.07;101268.78;2023408;28;3456499;-74
2023/08/14 02:25:42;;;;;;;;;10.33;8.67;;;;;21.34;62.07;101267.47;2041424;28;1833583;-74
2023/08/14 02:26:53;;;;;;;;;8.00;8.00;;;;;21.35;62.38;101264.72;1998633;28;2741960;-74
2023/08/14 02:28:05;;;;;;;;;7.00;7.00;;;;;21.39;61.76;101267.16;2037905;28;1817078;-74
2023/08/14 02:29:18;;;;;;;;;8.67;8.67;;;;;21.39;62.47;101259.13;2032070;28;1821608;-74
2023/08/14 02:30:29;;;;;;;;;7.00;7.00;;;;;21.36;62.30;101253.03;1989428;28;2744552;-74
2023/08/14 02:31:40;;;;;;;;;8.00;8.00;;;;;21.36;62.17;101252.19;2042064;28;1816965;-74
2023/08/14 02:32:51;;;;;;;;;15.25;9.25;;;;;21.34;62.01;101251.44;2024009;28;1818089;-74
2023/08/14 02:34:04;;;;;;;;;7.50;6.67;;;;;21.36;62.17;101252.19;2042681;28;1820094;-74
2023/08/14 02:35:15;;;;;;;;;10.00;8.50;;;;;21.37;61.96;101248.56;1986003;28;2755505;-74
2023/08/14 02:36:26;;;;;;;;;7.00;6.00;;;;;21.36;62.49;101250.38;2026134;28;2731598;-74
2023/08/14 02:37:37;;;;;;;;;9.00;8.00;;;;;21.35;61.89;101251.34;2009037;28;3464804;-74
2023/08/14 02:38:47;;;;;;;;;7.00;7.00;;;;;21.38;61.94;101241.41;2020744;28;2739869;-75
2023/08/14 02:39:58;;;;;;;;;6.67;6.67;;;;;21.41;61.96;101233.16;2023698;28;3449163;-76
2023/08/14 02:41:09;;;;;;;;;8.00;8.00;;;;;21.43;61.82;101231.22;2025743;28;3449218;-75
2023/08/14 02:42:21;;;;;;;;;9.25;7.75;;;;;21.48;61.59;101245.94;2039671;28;1831564;-75
2023/08/14 02:43:32;;;;;;;;;6.00;5.00;;;;;21.52;62.10;101235.91;2013563;28;3465889;-75
2023/08/14 02:44:43;;;;;;;;;8.00;8.00;;;;;21.52;62.06;101233.22;2018019;28;2741949;-75
2023/08/14 02:45:54;;;;;;;;;8.50;8.50;;;;;21.51;62.19;101223.47;2006548;28;2749226;-75
2023/08/14 02:47:06;;;;;;;;;7.00;7.00;;;;;21.46;62.53;101220.28;2037753;28;1812807;-76
2023/08/14 02:48:16;;;;;;;;;8.00;7.00;;;;;21.43;61.85;101221.41;2010271;28;2481498;-76
2023/08/14 02:49:27;;;;;;;;;11.00;8.50;;;;;21.43;62.21;101220.53;2018645;28;2764863;-75
2023/08/14 02:50:38;;;;;;;;;9.00;7.00;;;;;21.42;62.69;101219.66;2017686;28;2749188;-75
2023/08/14 02:51:49;;;;;;;;;6.00;5.33;;;;;21.40;62.16;101210.91;2025079;28;2742031;-75
2023/08/14 02:53:00;;;;;;;;;8.00;7.67;;;;;21.39;62.28;101213.66;2024449;28;2738794;-81
2023/08/14 02:54:10;;;;;;;;;9.33;7.33;;;;;21.38;62.49;101223.53;2025023;28;3459600;-78
2023/08/14 02:55:22;;;;;;;;;8.00;8.00;;;;;21.39;62.17;101219.03;2038218;28;1820198;-76
2023/08/14 02:56:33;;;;;;;;;8.33;7.33;;;;;21.40;62.17;101216.25;2003662;28;3454430;-75
2023/08/14 02:57:44;;;;;;;;;5.67;5.67;;;;;21.43;62.20;101215.19;2024922;28;2736744;-79
2023/08/14 02:58:55;;;;;;;;;9.67;8.00;;;;;21.46;61.98;101217.63;2019843;28;3477351;-79
2023/08/14 03:00:07;;;;;;;;;9.20;7.40;;;;;21.42;61.90;101214.31;2046884;28;1816965;-79
2023/08/14 03:01:19;;;;;;;;;8.50;8.00;;;;;21.38;62.26;101206.63;2001289;28;2751310;-79
2023/08/14 03:02:34;;;;;;;;;6.50;5.67;;;;;21.34;62.16;101201.50;2029173;28;2737762;-79
2023/08/14 03:03:44;;;;;;;;;7.00;7.00;;;;;21.32;62.26;101213.28;1986179;28;2742076;-79
2023/08/14 03:04:55;;;;;;;;;8.00;7.00;;;;;21.31;62.69;101206.22;2028754;28;2744058;-78
2023/08/14 03:06:06;;;;;;;;;8.50;6.00;;;;;21.27;62.25;101205.59;2027847;28;2476460;-77
2023/08/14 03:07:17;;;;;;;;;7.67;7.00;;;;;21.22;62.41;101203.25;2019572;28;2735701;-76
2023/08/14 03:08:28;;;;;;;;;12.00;6.00;;;;;21.21;62.48;101222.06;2019214;28;3482528;-76
2023/08/14 03:09:38;;;;;;;;;8.00;7.33;;;;;21.21;62.61;101222.06;2014423;28;2733607;-76
2023/08/14 03:10:49;;;;;;;;;7.33;7.33;;;;;21.19;62.23;101215.94;2025224;28;2738115;-76
2023/08/14 03:12:01;;;;;;;;;8.50;8.25;;;;;21.14;62.38;101222.50;2039368;28;1825305;-76
2023/08/14 03:13:12;;;;;;;;;13.75;9.50;;;;;21.11;62.60;101220.03;2022024;28;1830514;-76
2023/08/14 03:14:23;;;;;;;;;7.00;6.33;;;;;21.06;62.01;101214.19;2002896;28;2730580;-76
2023/08/14 03:15:34;;;;;;;;;8.00;7.33;;;;;21.03;62.65;101219.72;2027257;28;2737840;-76
2023/08/14 03:16:47;;;;;;;;;8.67;8.00;;;;;20.98;62.76;101222.69;2032569;28;2733970;-76
2023/08/14 03:18:00;;;;;;;;;7.67;6.83;;;;;20.93;62.60;101208.81;2013119;28;2735705;-77
2023/08/14 03:19:11;;;;;;;;;7.50;7.00;;;;;20.91;62.78;101211.56;1994075;28;2730469;-73
2023/08/14 03:20:22;;;;;;;;;8.00;6.00;;;;;20.90;62.93;101220.56;2040884;28;1821076;-74
2023/08/14 03:21:32;;;;;;;;;10.67;6.67;;;;;20.91;63.03;101221.41;1985164;28;3477378;-73
2023/08/14 03:22:44;;;;;;;;;12.75;6.75;;;;;20.90;62.94;101220.56;2045889;28;1818997;-73
2023/08/14 03:23:57;;;;;;;;;6.50;5.33;;;;;20.88;62.95;101217.13;2042851;28;2740912;-73
2023/08/14 03:25:08;;;;;;;;;8.00;6.00;;;;;20.84;62.56;101209.44;1989594;28;3462741;-73
2023/08/14 03:26:19;;;;;;;;;7.00;6.33;;;;;20.79;62.87;101202.59;2020681;28;2740914;-75
2023/08/14 03:27:29;;;;;;;;;8.00;6.00;;;;;20.79;62.51;101202.59;2020208;28;2727362;-76
2023/08/14 03:28:40;;;;;;;;;7.00;6.00;;;;;20.83;63.24;101203.25;2022501;28;2739849;-76
2023/08/14 03:29:51;;;;;;;;;8.00;7.00;;;;;20.89;62.91;101205.47;2028887;28;1819044;-76
2023/08/14 03:31:02;;;;;;;;;9.67;7.33;;;;;20.89;62.76;101193.97;2014246;28;3455425;-76
2023/08/14 03:32:13;;;;;;;;;6.67;6.00;;;;;20.88;62.57;101195.78;2030371;28;2737774;-76
2023/08/14 03:33:24;;;;;;;;;7.33;5.33;;;;;20.87;62.46;101199.38;2024489;28;2747168;-73
2023/08/14 03:34:35;;;;;;;;;6.00;5.00;;;;;20.87;62.67;101204.72;2024906;28;2742999;-73
2023/08/14 03:35:46;;;;;;;;;6.67;4.00;;;;;20.89;62.29;101208.16;2015630;28;2749320;-73
2023/08/14 03:36:57;;;;;;;;;9.00;7.00;;;;;20.92;62.85;101218.63;2020265;28;3452313;-73
2023/08/14 03:38:07;;;;;;;;;6.33;5.00;;;;;20.99;62.70;101223.56;2017520;28;3458581;-73
2023/08/14 03:39:18;;;;;;;;;7.00;7.00;;;;;21.03;62.67;101217.06;2034855;28;2739854;-76
2023/08/14 03:40:30;;;;;;;;;6.00;6.00;;;;;21.07;62.24;101221.22;2001414;28;1816949;-76
2023/08/14 03:41:40;;;;;;;;;4.67;4.67;;;;;21.13;62.25;101212.78;1989273;28;2745049;-76
2023/08/14 03:42:52;;;;;;;;;6.00;6.00;;;;;21.20;61.96;101215.00;2034981;28;2737769;-77
2023/08/14 03:44:02;;;;;;;;;5.33;4.33;;;;;21.27;61.51;101205.59;2020335;28;2748801;-76
2023/08/14 03:45:13;;;;;;;;;6.00;6.00;;;;;21.29;61.21;101206.31;2017005;28;3459647;-77
2023/08/14 03:46:24;;;;;;;;;6.33;5.67;;;;;21.27;61.13;101200.22;2021504;28;2745140;-77
2023/08/14 03:47:35;;;;;;;;;3.33;3.33;;;;;21.23;60.62;101198.75;2023257;28;2750358;-76
2023/08/14 03:48:46;;;;;;;;;5.00;5.00;;;;;21.19;61.13;101197.25;2007239;28;2746112;-76
2023/08/14 03:49:56;;;;;;;;;4.67;4.33;;;;;21.16;61.13;101202.84;2026174;28;3462840;-76
2023/08/14 03:51:08;;;;;;;;;7.00;5.00;;;;;21.12;61.54;101196.84;2035671;28;2734641;-82
2023/08/14 03:52:18;;;;;;;;;5.67;5.00;;;;;21.11;60.89;101195.97;1988893;28;2746149;-75
2023/08/14 03:53:30;;;;;;;;;5.00;4.67;;;;;21.09;60.58;101194.38;2026020;28;2745060;-74
2023/08/14 03:54:40;;;;;;;;;6.00;3.33;;;;;21.05;61.02;101188.41;2011100;28;2751382;-74
2023/08/14 03:55:51;;;;;;;;;5.00;5.00;;;;;21.01;60.81;101198.44;2027274;28;2737782;-80
2023/08/14 03:57:02;;;;;;;;;8.33;4.00;;;;;20.99;61.78;101200.34;2020238;28;2750252;-73
2023/08/14 03:58:13;;;;;;;;;5.00;5.00;;;;;21.00;61.43;101198.53;2030463;28;2746145;-75
2023/08/14 03:59:24;;;;;;;;;6.00;5.00;;;;;20.97;61.09;101194.25;1987107;28;2743051;-77
2023/08/14 04:00:35;;;;;;;;;6.00;4.67;;;;;20.96;61.38;101189.88;2029271;28;2743008;-75
2023/08/14 04:01:46;;;;;;;;;4.33;4.33;;;;;20.95;61.28;101189.97;2005790;28;2751339;-76
2023/08/14 04:02:57;;;;;;;;;8.67;4.67;;;;;20.92;61.08;101191.03;2035836;28;2748723;-75
2023/08/14 04:04:07;;;;;;;;;3.00;3.00;;;;;20.90;61.21;101185.81;2025278;28;2746139;-75
2023/08/14 04:05:19;;;;;;;;;3.00;2.50;;;;;20.88;61.11;101182.41;2027794;28;2733614;-76
2023/08/14 04:06:30;;;;;;;;;5.67;4.00;;;;;20.86;60.86;101184.34;2010719;28;2748347;-76
2023/08/14 04:07:41;;;;;;;;;7.00;4.67;;;;;20.83;60.65;101187.22;2034016;28;2746436;-75
2023/08/14 04:08:52;;;;;;;;;6.67;5.00;;;;;20.79;61.10;101188.41;2009825;28;2746130;-75
2023/08/14 04:10:03;;;;;;;;;4.67;4.00;;;;;20.76;60.73;101199.28;2009914;28;2744193;-76
2023/08/14 04:11:13;;;;;;;;;5.00;5.00;;;;;20.73;60.82;101199.50;2003087;28;2744411;-75
2023/08/14 04:12:24;;;;;;;;;6.33;4.33;;;;;20.71;60.99;101204.09;2011312;28;2738828;-75
2023/08/14 04:13:35;;;;;;;;;5.00;5.00;;;;;20.68;61.57;101198.00;2018768;28;2746214;-75
2023/08/14 04:14:49;;;;;;;;;4.33;4.33;;;;;20.68;61.18;101207.84;2017830;28;2742997;-75
2023/08/14 04:15:59;;;;;;;;;5.00;4.00;;;;;20.66;61.47;101213.28;2010449;28;2752348;-74
2023/08/14 04:17:10;;;;;;;;;6.00;6.00;;;;;20.66;61.41;101209.75;2011205;28;2740895;-76
2023/08/14 04:18:21;;;;;;;;;5.00;5.00;;;;;20.64;61.21;101207.16;2026793;28;2744013;-77
2023/08/14 04:19:32;;;;;;;;;6.00;6.00;;;;;20.60;61.34;101199.47;2035388;28;2739855;-76
2023/08/14 04:20:45;;;;;;;;;4.67;4.00;;;;;20.58;61.13;101207.59;2012064;28;2741928;-76
2023/08/14 04:21:56;;;;;;;;;5.00;4.67;;;;;20.55;61.41;101199.78;1985290;28;3470044;-76
2023/08/14 04:23:07;;;;;;;;;6.33;5.00;;;;;20.52;61.34;101200.03;2021637;28;2746126;-76
2023/08/14 04:24:18;;;;;;;;;5.00;4.33;;;;;20.48;61.09;101193.16;2022215;28;2752435;-76
2023/08/14 04:25:29;;;;;;;;;8.00;5.67;;;;;20.44;61.12;101190.72;2021142;28;2746103;-75
2023/08/14 04:26:40;;;;;;;;;5.00;5.00;;;;;20.40;61.49;101194.53;2020919;28;2750387;-77
2023/08/14 04:27:50;;;;;;;;;4.00;4.00;;;;;20.39;61.97;101190.19;2010509;28;2752428;-76
2023/08/14 04:29:01;;;;;;;;;3.00;3.00;;;;;20.38;62.12;101191.13;2026586;28;2737773;-76
2023/08/14 04:30:13;;;;;;;;;4.50;4.50;;;;;20.41;62.06;101187.41;2034288;28;2739901;-73
2023/08/14 04:31:26;;;;;;;;;5.83;5.83;;;;;20.45;61.80;101195.09;2036544;28;2727368;-73
2023/08/14 04:32:40;;;;;;;;;2.83;2.83;;;;;20.49;61.59;101195.75;2013233;28;2750304;-74
2023/08/14 04:33:51;;;;;;;;;4.33;4.33;;;;;20.50;61.86;101201.94;1996322;28;2744044;-73
2023/08/14 04:35:03;;;;;;;;;4.33;4.00;;;;;20.51;61.96;101198.31;2031447;28;2752929;-74
2023/08/14 04:36:13;;;;;;;;;5.33;4.33;;;;;20.52;61.88;101195.53;2001766;28;2752465;-73
2023/08/14 04:37:24;;;;;;;;;5.00;5.00;;;;;20.51;61.67;101196.50;2024474;28;2741947;-74
2023/08/14 04:38:35;;;;;;;;;5.00;5.00;;;;;20.49;61.45;101200.22;2019353;28;2746185;-74
2023/08/14 04:39:46;;;;;;;;;6.33;3.67;;;;;20.45;61.91;101191.56;2016607;28;2750422;-74
2023/08/14 04:40:57;;;;;;;;;4.25;2.50;;;;;20.43;61.43;101188.16;2034959;28;2732574;-73
2023/08/14 04:42:08;;;;;;;;;4.67;4.00;;;;;20.40;61.32;101197.22;2011286;28;2746165;-74
2023/08/14 04:43:19;;;;;;;;;3.00;3.00;;;;;20.36;61.63;101190.38;2034750;28;3466452;-73
2023/08/14 04:44:30;;;;;;;;;4.67;4.00;;;;;20.33;61.86;101204.78;2024113;28;2746186;-73
2023/08/14 04:45:41;;;;;;;;;4.00;4.00;;;;;20.31;62.38;101203.19;2023638;28;2750362;-74
2023/08/14 04:46:51;;;;;;;;;4.33;4.33;;;;;20.30;62.19;101201.47;2021263;28;2744027;-73
2023/08/14 04:48:02;;;;;;;;;5.33;4.33;;;;;20.31;62.19;101203.19;2021229;28;2745563;-73
2023/08/14 04:49:13;;;;;;;;;5.00;5.00;;;;;20.30;62.52;101201.47;2014919;28;2744086;-73
2023/08/14 04:50:24;;;;;;;;;4.67;4.00;;;;;20.30;62.25;101201.47;2021795;28;3470024;-74
2023/08/14 04:51:35;;;;;;;;;5.00;3.67;;;;;20.28;61.80;101196.22;2027891;28;3467972;-74
2023/08/14 04:52:46;;;;;;;;;5.33;5.00;;;;;20.27;61.98;101193.69;2029905;28;2737856;-74
2023/08/14 04:53:59;;;;;;;;;3.00;3.00;;;;;20.23;61.91;101193.88;2030372;28;3457911;-73
2023/08/14 04:55:09;;;;;;;;;5.00;3.00;;;;;20.21;62.55;101198.47;2001174;28;3458593;-74
2023/08/14 04:56:20;;;;;;;;;6.00;6.00;;;;;20.20;62.12;101195.91;2022110;28;2742982;-74
2023/08/14 04:57:31;;;;;;;;;4.67;4.00;;;;;20.20;62.35;101195.91;2020987;28;3463777;-74
2023/08/14 04:58:43;;;;;;;;;8.33;5.00;;;;;20.19;62.49;101194.19;2014125;28;2746196;-74
2023/08/14 04:59:53;;;;;;;;;5.33;4.00;;;;;20.19;62.17;101194.19;2002571;28;2744015;-74
2023/08/14 05:01:04;;;;;;;;;9.67;5.33;;;;;20.17;62.14;101194.31;2039494;28;1832565;-74
2023/08/14 05:02:15;;;;;;;;;5.00;3.33;;;;;20.17;62.31;101194.31;2010711;28;2743002;-75
2023/08/14 05:03:26;;;;;;;;;6.33;4.33;;;;;20.15;62.53;101196.19;2027299;28;3456523;-73
2023/08/14 05:04:36;;;;;;;;;6.00;4.00;;;;;20.14;62.51;101202.50;2022952;28;2743068;-73
2023/08/14 05:05:51;;;;;;;;;4.00;4.00;;;;;20.14;62.45;101210.50;2022932;28;2754546;-72
2023/08/14 05:07:02;;;;;;;;;3.33;3.33;;;;;20.13;62.16;101206.97;2015415;28;3467965;-71
2023/08/14 05:08:13;;;;;;;;;6.67;5.00;;;;;20.10;62.77;101201.81;2030228;28;2746156;-73
2023/08/14 05:09:23;;;;;;;;;5.67;2.33;;;;;20.10;63.36;101206.31;2021964;28;2746184;-73
2023/08/14 05:10:34;;;;;;;;;6.33;3.33;;;;;20.15;62.98;101206.88;2025016;28;2737774;-73
2023/08/14 05:11:45;;;;;;;;;8.33;5.00;;;;;20.17;62.67;101207.66;2031567;28;3464282;-72
2023/08/14 05:12:56;;;;;;;;;5.67;4.00;;;;;20.16;62.87;101197.91;2017324;28;2752456;-72
2023/08/14 05:14:07;;;;;;;;;4.67;4.67;;;;;20.15;62.38;101198.88;2016004;28;2750284;-72
2023/08/14 05:15:18;;;;;;;;;4.00;4.00;;;;;20.13;62.42;101200.78;2015357;28;2740911;-72
2023/08/14 05:16:29;;;;;;;;;5.67;4.00;;;;;20.10;62.86;101195.66;2015169;28;3467948;-72
2023/08/14 05:17:40;;;;;;;;;5.00;5.00;;;;;20.10;63.20;101204.47;2015877;28;2747156;-73
2023/08/14 05:18:50;;;;;;;;;4.67;4.67;;;;;20.12;63.33;101210.59;2016960;28;2750350;-72
2023/08/14 05:20:02;;;;;;;;;4.00;3.00;;;;;20.19;63.23;101218.22;2021114;28;2754536;-73
2023/08/14 05:21:13;;;;;;;;;5.00;4.00;;;;;20.24;62.89;101213.44;2009907;28;3470041;-72
2023/08/14 05:22:24;;;;;;;;;6.00;5.00;;;;;20.28;62.94;101208.72;2026659;28;2746770;-72
2023/08/14 05:23:35;;;;;;;;;3.75;2.00;;;;;20.30;62.83;101212.13;2035606;28;2741925;-72
2023/08/14 05:24:46;;;;;;;;;7.00;7.00;;;;;20.32;62.49;101204.91;2008565;28;2735743;-73
2023/08/14 05:25:57;;;;;;;;;5.67;4.67;;;;;20.31;62.59;101204.03;2023766;28;2745185;-73
2023/08/14 05:27:08;;;;;;;;;4.00;4.00;;;;;20.31;62.37;101208.53;2021984;28;2745720;-73
2023/08/14 05:28:19;;;;;;;;;8.67;5.00;;;;;20.28;62.53;101193.56;2022011;28;2753558;-72